createdAt,value
2023-11-21T00:00:02.301Z,29.75
2023-11-21T00:02:29.727Z,29.80
2023-11-21T00:04:57.096Z,27.57
2023-11-21T00:07:24.492Z,28.02
2023-11-21T00:09:52.234Z,29.85
2023-11-21T00:12:19.533Z,27.90
2023-11-21T00:14:46.948Z,26.80
2023-11-21T00:17:14.353Z,28.60
2023-11-21T00:19:41.782Z,29.27
2023-11-21T00:22:10.097Z,29.15
2023-11-21T00:24:37.401Z,28.83
2023-11-21T00:27:04.836Z,29.92
2023-11-21T00:29:32.238Z,30.50
2023-11-21T00:31:59.681Z,30.98
2023-11-21T00:34:27.091Z,30.75
2023-11-21T00:36:55.633Z,32.97
2023-11-21T00:39:22.992Z,29.58
2023-11-21T00:41:50.317Z,29.50
2023-11-21T00:44:17.648Z,30.00
2023-11-21T00:46:45.055Z,28.23
2023-11-21T00:49:12.399Z,26.65
2023-11-21T00:51:39.748Z,27.98
2023-11-21T00:54:07.901Z,26.93
2023-11-21T00:56:35.212Z,27.02
2023-11-21T00:59:02.535Z,27.25
2023-11-21T01:01:29.959Z,28.30
2023-11-21T01:03:57.303Z,29.05
2023-11-21T01:06:24.603Z,28.57
2023-11-21T01:08:51.902Z,28.05
2023-11-21T01:11:19.365Z,27.60
2023-11-21T01:13:46.802Z,30.25
2023-11-21T01:16:14.213Z,27.75
2023-11-21T01:18:41.629Z,28.53
2023-11-21T01:21:10.136Z,28.48
2023-11-21T01:23:37.612Z,30.48
2023-11-21T01:26:04.949Z,29.38
2023-11-21T01:28:32.380Z,26.45
2023-11-21T01:30:59.783Z,26.93
2023-11-21T01:33:27.254Z,26.30
2023-11-21T01:35:56.104Z,23.60
2023-11-21T01:38:23.542Z,24.50
2023-11-21T01:40:50.963Z,23.63
2023-11-21T01:43:22.712Z,23.07
2023-11-21T01:45:50.229Z,24.13
2023-11-21T01:48:17.914Z,24.60
2023-11-21T01:50:46.104Z,22.50
2023-11-21T01:53:14.335Z,22.45
2023-11-21T01:55:43.043Z,22.43
2023-11-21T01:58:10.467Z,23.08
2023-11-21T02:00:39.675Z,24.40
2023-11-21T02:03:08.536Z,24.70
2023-11-21T02:05:36.075Z,24.85
2023-11-21T02:08:04.398Z,24.83
2023-11-21T02:10:32.535Z,24.92
2023-11-21T02:13:01.331Z,23.70
2023-11-21T02:15:30.187Z,25.30
2023-11-21T02:17:59.702Z,29.05
2023-11-21T02:20:27.661Z,24.17
2023-11-21T02:22:59.597Z,24.63
2023-11-21T02:25:30.913Z,25.00
2023-11-21T02:27:59.339Z,24.92
2023-11-21T02:30:26.752Z,25.23
2023-11-21T02:32:54.367Z,27.10
2023-11-21T02:35:26.952Z,26.60
2023-11-21T02:37:54.840Z,25.97
2023-11-21T02:40:22.743Z,25.48
2023-11-21T02:42:53.734Z,24.17
2023-11-21T02:45:22.378Z,25.42
2023-11-21T02:47:54.795Z,24.95
2023-11-21T02:50:24.095Z,24.65
2023-11-21T02:52:52.727Z,23.20
2023-11-21T02:55:21.701Z,23.02
2023-11-21T02:57:49.207Z,24.80
2023-11-21T03:00:17.268Z,23.40
2023-11-21T03:02:46.052Z,21.40
2023-11-21T03:05:13.435Z,22.92
2023-11-21T03:07:41.353Z,26.50
2023-11-21T03:10:13.166Z,23.60
2023-11-21T03:12:41.003Z,21.30
2023-11-21T03:15:08.998Z,18.53
2023-11-21T03:17:36.505Z,19.38
2023-11-21T03:20:05.715Z,22.77
2023-11-21T03:22:35.955Z,21.27
2023-11-21T03:25:04.189Z,20.92
2023-11-21T03:27:31.488Z,21.77
2023-11-21T03:29:58.760Z,20.73
2023-11-21T03:32:26.101Z,21.63
2023-11-21T03:34:58.137Z,18.98
2023-11-21T03:37:29.393Z,21.33
2023-11-21T03:39:58.222Z,20.17
2023-11-21T03:42:28.877Z,20.67
2023-11-21T03:44:56.230Z,18.58
2023-11-21T03:47:23.706Z,19.48
2023-11-21T03:49:51.185Z,19.65
2023-11-21T03:52:18.733Z,20.63
2023-11-21T03:54:46.203Z,19.45
2023-11-21T03:57:13.624Z,21.73
2023-11-21T03:59:42.239Z,19.48
2023-11-21T04:02:09.660Z,20.10
2023-11-21T04:04:37.441Z,20.37
2023-11-21T04:07:05.461Z,19.75
2023-11-21T04:09:32.894Z,20.67
2023-11-21T04:12:00.379Z,19.27
2023-11-21T04:14:27.786Z,19.40
2023-11-21T04:16:55.332Z,19.37
2023-11-21T04:19:23.019Z,17.05
2023-11-21T04:21:50.518Z,18.80
2023-11-21T04:24:17.853Z,18.02
2023-11-21T04:26:45.639Z,19.48
2023-11-21T04:29:13.049Z,18.40
2023-11-21T04:31:40.410Z,18.13
2023-11-21T04:34:07.852Z,19.13
2023-11-21T04:36:36.151Z,22.65
2023-11-21T04:39:03.758Z,22.83
2023-11-21T04:41:32.913Z,21.40
2023-11-21T04:44:01.880Z,22.23
2023-11-21T04:46:29.614Z,22.13
2023-11-21T04:48:56.965Z,21.48
2023-11-21T04:51:24.313Z,19.92
2023-11-21T04:53:51.610Z,21.77
2023-11-21T04:56:18.963Z,19.58
2023-11-21T04:58:46.692Z,20.75
2023-11-21T05:01:14.193Z,21.10
2023-11-21T05:03:42.329Z,19.25
2023-11-21T05:06:12.488Z,19.80
2023-11-21T05:08:39.846Z,18.95
2023-11-21T05:11:08.485Z,17.75
2023-11-21T05:13:36.073Z,19.77
2023-11-21T05:16:05.478Z,19.23
2023-11-21T05:18:32.920Z,19.97
2023-11-21T05:21:00.311Z,19.25
2023-11-21T05:23:27.739Z,18.95
2023-11-21T05:25:55.138Z,18.73
2023-11-21T05:28:22.538Z,19.10
2023-11-21T05:30:53.849Z,17.53
2023-11-21T05:33:26.508Z,19.42
2023-11-21T05:35:53.864Z,16.17
2023-11-21T05:38:23.384Z,17.60
2023-11-21T05:40:51.112Z,16.98
2023-11-21T05:43:19.161Z,15.97
2023-11-21T05:45:46.577Z,15.48
2023-11-21T05:48:13.964Z,15.40
2023-11-21T05:50:41.280Z,15.07
2023-11-21T05:53:10.626Z,15.23
2023-11-21T05:55:38.210Z,14.87
2023-11-21T05:58:05.889Z,14.93
2023-11-21T06:00:33.821Z,15.50
2023-11-21T06:03:01.513Z,13.60
2023-11-21T06:05:28.901Z,13.38
2023-11-21T06:08:00.204Z,14.90
2023-11-21T06:10:28.727Z,13.82
2023-11-21T06:12:56.238Z,13.02
2023-11-21T06:15:24.786Z,13.35
2023-11-21T06:17:56.381Z,13.00
2023-11-21T06:20:24.476Z,12.23
2023-11-21T06:22:52.716Z,13.10
2023-11-21T06:25:20.382Z,13.40
2023-11-21T06:27:48.993Z,13.48
2023-11-21T06:30:16.663Z,11.38
2023-11-21T06:32:47.862Z,10.77
2023-11-21T06:35:17.429Z,11.57
2023-11-21T06:37:49.705Z,9.75
2023-11-21T06:40:20.282Z,10.88
2023-11-21T06:42:48.579Z,10.50
2023-11-21T06:45:19.866Z,10.83
2023-11-21T06:47:47.623Z,10.48
2023-11-21T06:50:15.412Z,10.75
2023-11-21T06:52:45.187Z,11.25
2023-11-21T06:55:12.834Z,10.98
2023-11-21T06:57:40.122Z,10.90
2023-11-21T07:00:11.040Z,11.43
2023-11-21T07:02:44.071Z,12.93
2023-11-21T07:08:23.750Z,12.57
2023-11-21T07:10:54.543Z,13.83
2023-11-21T07:13:25.410Z,13.45
2023-11-21T07:15:58.601Z,14.90
2023-11-21T07:18:25.953Z,14.57
2023-11-21T07:20:53.405Z,16.00
2023-11-21T07:23:20.806Z,16.30
2023-11-21T07:25:48.837Z,15.73
2023-11-21T07:28:16.494Z,14.55
2023-11-21T07:30:44.111Z,14.68
2023-11-21T07:33:11.830Z,13.63
2023-11-21T07:35:39.333Z,15.27
2023-11-21T07:38:06.959Z,15.63
2023-11-21T07:40:34.557Z,14.45
2023-11-21T07:43:01.871Z,14.52
2023-11-21T07:45:29.514Z,15.50
2023-11-21T07:48:01.943Z,15.53
2023-11-21T07:50:29.370Z,14.23
2023-11-21T07:52:56.917Z,14.93
2023-11-21T07:55:51.973Z,14.10
2023-11-21T07:58:44.210Z,12.77
2023-11-21T08:02:32.516Z,12.23
2023-11-21T08:05:00.089Z,11.90
2023-11-21T08:07:27.811Z,12.07
2023-11-21T08:09:55.382Z,13.25
2023-11-21T08:12:22.710Z,13.05
2023-11-21T08:14:50.063Z,12.17
2023-11-21T08:17:18.654Z,14.18
2023-11-21T08:19:50.377Z,13.57
2023-11-21T08:22:19.830Z,14.57
2023-11-21T08:24:48.067Z,13.52
2023-11-21T08:27:17.010Z,15.03
2023-11-21T08:29:44.509Z,13.48
2023-11-21T08:32:11.952Z,13.07
2023-11-21T08:34:41.288Z,13.18
2023-11-21T08:37:08.852Z,13.70
2023-11-21T08:39:45.522Z,12.57
2023-11-21T08:42:14.659Z,13.43
2023-11-21T08:44:42.550Z,12.88
2023-11-21T08:47:10.041Z,15.68
2023-11-21T08:49:37.843Z,14.68
2023-11-21T08:52:20.472Z,14.30
2023-11-21T08:54:57.253Z,14.55
2023-11-21T08:57:33.890Z,14.25
2023-11-21T09:00:01.341Z,14.05
2023-11-21T09:02:28.737Z,16.17
2023-11-21T09:04:56.155Z,14.48
2023-11-21T09:07:26.909Z,12.88
2023-11-21T09:09:54.320Z,13.52
2023-11-21T09:12:28.970Z,14.35
2023-11-21T09:15:19.102Z,15.02
2023-11-21T09:17:50.966Z,13.43
2023-11-21T09:20:18.426Z,13.65
2023-11-21T09:22:49.537Z,13.80
2023-11-21T09:25:17.230Z,15.48
2023-11-21T09:27:44.683Z,14.55
2023-11-21T09:30:12.882Z,15.27
2023-11-21T09:32:41.971Z,12.82
2023-11-21T09:35:10.098Z,14.13
2023-11-21T09:37:39.276Z,14.63
2023-11-21T09:40:13.745Z,14.77
2023-11-21T09:42:45.311Z,14.07
2023-11-21T09:45:29.953Z,13.18
2023-11-21T09:47:57.919Z,14.25
2023-11-21T09:50:25.772Z,13.25
2023-11-21T09:52:59.265Z,15.55
2023-11-21T09:55:30.883Z,14.60
2023-11-21T09:57:59.001Z,12.63
2023-11-21T10:00:26.634Z,12.68
2023-11-21T10:02:56.636Z,12.05
2023-11-21T10:05:27.535Z,12.20
2023-11-21T10:07:58.802Z,12.20
2023-11-21T10:10:26.622Z,11.15
2023-11-21T10:12:56.641Z,12.27
2023-11-21T10:15:24.559Z,11.48
2023-11-21T10:17:54.394Z,11.85
2023-11-21T10:20:22.172Z,11.10
2023-11-21T10:22:50.790Z,12.27
2023-11-21T10:25:21.531Z,13.98
2023-11-21T10:27:51.684Z,12.60
2023-11-21T10:30:19.283Z,13.55
2023-11-21T10:32:47.905Z,14.05
2023-11-21T10:35:18.017Z,15.20
2023-11-21T10:37:45.703Z,13.50
2023-11-21T10:40:18.877Z,14.65
2023-11-21T10:42:46.451Z,14.45
2023-11-21T10:45:16.718Z,14.40
2023-11-21T10:47:45.185Z,14.30
2023-11-21T10:50:13.042Z,14.82
2023-11-21T10:52:42.442Z,14.43
2023-11-21T10:55:23.339Z,14.23
2023-11-21T10:57:52.288Z,12.85
2023-11-21T11:00:22.744Z,13.93
2023-11-21T11:02:52.539Z,14.00
2023-11-21T11:08:28.776Z,14.02
2023-11-21T11:11:00.044Z,15.00
2023-11-21T11:13:27.497Z,14.68
2023-11-21T11:16:08.352Z,13.95
2023-11-21T11:18:35.925Z,14.18
2023-11-21T11:21:30.772Z,12.93
2023-11-21T11:24:12.907Z,11.83
2023-11-21T11:26:52.952Z,11.25
2023-11-21T11:29:32.277Z,11.85
2023-11-21T11:32:11.420Z,12.15
2023-11-21T11:34:43.898Z,12.23
2023-11-21T11:37:16.718Z,12.43
2023-11-21T11:40:09.188Z,11.85
2023-11-21T11:42:36.002Z,10.90
2023-11-21T11:45:05.591Z,10.52
2023-11-21T11:47:47.674Z,12.05
2023-11-21T11:50:35.698Z,13.53
2023-11-21T11:53:16.291Z,13.02
2023-11-21T11:55:43.733Z,11.70
2023-11-21T11:58:11.345Z,10.75
2023-11-21T12:00:41.234Z,10.90
2023-11-21T12:03:09.697Z,12.03
2023-11-21T12:05:39.880Z,9.93
2023-11-21T12:08:08.612Z,11.52
2023-11-21T12:10:37.689Z,11.75
2023-11-21T12:13:11.285Z,11.40
2023-11-21T12:15:40.130Z,12.07
2023-11-21T12:18:41.245Z,11.75
2023-11-21T12:21:11.091Z,11.35
2023-11-21T12:23:38.531Z,11.07
2023-11-21T12:26:06.304Z,11.75
2023-11-21T12:28:35.402Z,11.00
2023-11-21T12:31:15.528Z,11.57
2023-11-21T12:34:03.181Z,12.30
2023-11-21T12:36:33.776Z,12.25
2023-11-21T12:39:01.602Z,12.40
2023-11-21T12:41:33.193Z,11.70
2023-11-21T12:44:13.164Z,11.82
2023-11-21T12:46:48.397Z,12.75
2023-11-21T12:53:00.243Z,11.82
2023-11-21T12:55:31.264Z,11.90
2023-11-21T12:58:07.103Z,11.43
2023-11-21T13:00:38.491Z,11.02
2023-11-21T13:03:07.138Z,12.38
2023-11-21T13:05:36.095Z,13.20
2023-11-21T13:08:04.626Z,13.65
2023-11-21T13:10:32.631Z,14.85
2023-11-21T13:13:06.396Z,14.13
2023-11-21T13:15:44.244Z,13.98
2023-11-21T13:18:27.187Z,15.52
2023-11-21T13:20:56.254Z,14.90
2023-11-21T13:23:45.280Z,13.65
2023-11-21T13:26:14.681Z,14.20
2023-11-21T13:28:49.822Z,14.63
2023-11-21T13:31:27.162Z,14.38
2023-11-21T13:33:58.098Z,14.95
2023-11-21T13:36:57.186Z,14.82
2023-11-21T13:39:25.010Z,13.80
2023-11-21T13:41:56.358Z,14.80
2023-11-21T13:44:36.088Z,12.82
2023-11-21T13:47:03.760Z,13.65
2023-11-21T13:49:36.564Z,15.63
2023-11-21T13:52:09.182Z,15.85
2023-11-21T13:54:36.656Z,15.23
2023-11-21T13:57:07.793Z,14.85
2023-11-21T13:59:35.237Z,13.80
2023-11-21T14:02:17.895Z,13.57
2023-11-21T14:04:56.211Z,13.35
2023-11-21T14:07:37.164Z,12.45
2023-11-21T14:10:06.265Z,12.48
2023-11-21T14:12:38.357Z,12.48
2023-11-21T14:15:10.929Z,11.52
2023-11-21T14:17:41.008Z,12.50
2023-11-21T14:20:15.766Z,11.70
2023-11-21T14:22:43.481Z,12.40
2023-11-21T14:25:12.681Z,11.30
2023-11-21T14:27:40.114Z,12.15
2023-11-21T14:30:08.045Z,12.75
2023-11-21T14:32:36.229Z,11.80
2023-11-21T14:35:04.873Z,12.38
2023-11-21T14:37:32.312Z,12.95
2023-11-21T14:39:59.660Z,11.85
2023-11-21T14:42:30.831Z,12.57
2023-11-21T14:45:04.060Z,10.40
2023-11-21T14:47:31.457Z,11.07
2023-11-21T14:50:01.189Z,11.30
2023-11-21T14:52:36.366Z,11.52
2023-11-21T14:55:22.108Z,10.48
2023-11-21T14:57:52.290Z,11.38
2023-11-21T15:00:53.052Z,10.80
2023-11-21T15:03:46.584Z,9.93
2023-11-21T15:06:20.977Z,9.95
2023-11-21T15:09:09.127Z,10.00
2023-11-21T15:11:38.075Z,10.50
2023-11-21T15:14:10.320Z,10.40
2023-11-21T15:16:43.954Z,9.93
2023-11-21T15:19:13.347Z,9.75
2023-11-21T15:21:40.700Z,10.25
2023-11-21T15:24:08.196Z,10.63
2023-11-21T15:26:35.529Z,10.05
2023-11-21T15:29:02.944Z,10.50
2023-11-21T15:35:32.889Z,10.25
2023-11-21T15:38:00.814Z,11.20
2023-11-21T15:40:28.608Z,11.52
2023-11-21T15:42:56.090Z,11.10
2023-11-21T15:45:26.167Z,11.23
2023-11-21T15:47:58.482Z,11.20
2023-11-21T15:50:29.049Z,11.55
2023-11-21T15:52:58.161Z,12.27
2023-11-21T15:55:26.532Z,11.43
2023-11-21T15:57:53.884Z,12.07
2023-11-21T16:00:23.833Z,11.48
2023-11-21T16:02:51.670Z,12.57
2023-11-21T16:05:19.345Z,12.23
2023-11-21T16:07:47.532Z,11.90
2023-11-21T16:10:17.645Z,11.35
2023-11-21T16:12:44.969Z,12.07
2023-11-21T16:15:13.050Z,13.07
2023-11-21T16:17:40.660Z,13.50
2023-11-21T16:20:10.640Z,12.60
2023-11-21T16:22:38.857Z,11.40
2023-11-21T16:25:11.917Z,11.93
2023-11-21T16:27:39.674Z,11.48
2023-11-21T16:30:10.917Z,12.55
2023-11-21T16:32:38.576Z,13.30
2023-11-21T16:35:06.455Z,12.07
2023-11-21T16:37:33.797Z,13.18
2023-11-21T16:40:01.321Z,13.60
2023-11-21T16:42:30.851Z,14.38
2023-11-21T16:44:58.576Z,16.40
2023-11-21T16:47:28.857Z,14.90
2023-11-21T16:49:57.913Z,16.13
2023-11-21T16:52:25.364Z,16.70
2023-11-21T16:54:52.837Z,16.27
2023-11-21T16:57:20.240Z,15.53
2023-11-21T16:59:51.677Z,15.57
2023-11-21T17:02:20.275Z,15.05
2023-11-21T17:04:50.265Z,16.20
2023-11-21T17:07:18.547Z,17.20
2023-11-21T17:09:45.928Z,15.07
2023-11-21T17:12:13.233Z,15.32
2023-11-21T17:14:43.125Z,15.32
2023-11-21T17:17:11.510Z,16.42
2023-11-21T17:19:40.595Z,17.13
2023-11-21T17:22:09.097Z,16.17
2023-11-21T17:24:37.524Z,17.88
2023-11-21T17:27:05.760Z,19.92
2023-11-21T17:29:33.137Z,18.75
2023-11-21T17:32:00.844Z,18.10
2023-11-21T17:34:29.233Z,18.97
2023-11-21T17:36:56.866Z,18.25
2023-11-21T17:39:24.476Z,17.70
2023-11-21T17:41:51.894Z,19.27
2023-11-21T17:44:19.238Z,18.90
2023-11-21T17:46:46.665Z,18.47
2023-11-21T17:49:14.058Z,18.48
2023-11-21T17:51:42.310Z,18.85
2023-11-21T17:54:09.910Z,19.02
2023-11-21T17:56:37.604Z,19.00
2023-11-21T17:59:05.703Z,19.77
2023-11-21T18:01:40.001Z,17.33
2023-11-21T18:04:08.327Z,15.68
2023-11-21T18:06:35.759Z,16.20
2023-11-21T18:09:04.741Z,16.63
2023-11-21T18:11:32.154Z,17.60
2023-11-21T18:13:59.556Z,15.30
2023-11-21T18:16:27.320Z,14.63
2023-11-21T18:18:54.829Z,14.90
2023-11-21T18:21:22.163Z,16.10
2023-11-21T18:23:49.622Z,13.77
2023-11-21T18:26:20.164Z,13.95
2023-11-21T18:28:47.772Z,13.73
2023-11-21T18:31:16.293Z,11.90
2023-11-21T18:33:44.835Z,13.45
2023-11-21T18:36:12.235Z,13.63
2023-11-21T18:38:39.900Z,14.68
2023-11-21T18:41:07.367Z,15.38
2023-11-21T18:43:34.688Z,14.85
2023-11-21T18:46:03.721Z,14.13
2023-11-21T18:48:31.287Z,15.80
2023-11-21T18:50:58.638Z,16.05
2023-11-21T18:53:26.776Z,16.25
2023-11-21T18:55:54.173Z,15.93
2023-11-21T18:58:21.524Z,15.05
2023-11-21T19:00:48.858Z,13.23
2023-11-21T19:03:16.280Z,13.15
2023-11-21T19:05:43.744Z,14.50
2023-11-21T19:08:11.138Z,12.13
2023-11-21T19:10:38.578Z,13.43
2023-11-21T19:13:23.142Z,13.95
2023-11-21T19:15:50.452Z,13.82
2023-11-21T19:18:17.852Z,12.63
2023-11-21T19:20:45.442Z,11.90
2023-11-21T19:23:12.829Z,12.88
2023-11-21T19:25:40.261Z,12.20
2023-11-21T19:28:07.593Z,13.05
2023-11-21T19:30:36.101Z,12.27
2023-11-21T19:33:06.901Z,12.25
2023-11-21T19:35:40.341Z,11.15
2023-11-21T19:38:07.747Z,11.87
2023-11-21T19:40:35.580Z,13.15
2023-11-21T19:43:03.771Z,12.30
2023-11-21T19:45:32.502Z,12.48
2023-11-21T19:47:59.965Z,12.20
2023-11-21T19:50:27.539Z,11.37
2023-11-21T19:52:54.873Z,10.98
2023-11-21T19:55:22.178Z,10.25
2023-11-21T19:57:49.892Z,11.95
2023-11-21T20:00:17.773Z,9.95
2023-11-21T20:02:45.397Z,10.87
2023-11-21T20:05:16.402Z,10.00
2023-11-21T20:07:44.277Z,10.40
2023-11-21T20:10:11.902Z,11.43
2023-11-21T20:12:39.254Z,10.07
2023-11-21T20:15:07.476Z,10.67
2023-11-21T20:17:34.869Z,10.43
2023-11-21T20:20:02.376Z,11.32
2023-11-21T20:22:29.865Z,11.98
2023-11-21T20:24:58.177Z,11.90
2023-11-21T20:27:25.489Z,10.47
2023-11-21T20:29:52.830Z,11.50
2023-11-21T20:32:25.306Z,11.25
2023-11-21T20:34:54.261Z,10.75
2023-11-21T20:37:21.670Z,11.35
2023-11-21T20:39:50.044Z,12.10
2023-11-21T20:42:17.500Z,12.63
2023-11-21T20:44:44.831Z,14.45
2023-11-21T20:47:12.845Z,13.98
2023-11-21T20:49:48.069Z,13.30
2023-11-21T20:52:16.579Z,11.27
2023-11-21T20:54:45.627Z,11.15
2023-11-21T20:57:13.565Z,11.75
2023-11-21T20:59:40.894Z,12.02
2023-11-21T21:02:08.304Z,9.68
2023-11-21T21:04:35.683Z,11.87
2023-11-21T21:07:03.630Z,12.25
2023-11-21T21:09:31.120Z,11.80
2023-11-21T21:11:58.698Z,9.95
2023-11-21T21:14:30.182Z,11.13
2023-11-21T21:16:58.367Z,11.27
2023-11-21T21:19:29.042Z,12.32
2023-11-21T21:21:57.341Z,11.73
2023-11-21T21:24:24.716Z,11.93
2023-11-21T21:26:52.016Z,11.02
2023-11-21T21:29:21.626Z,11.37
2023-11-21T21:31:49.150Z,12.20
2023-11-21T21:34:18.075Z,11.40
2023-11-21T21:36:46.598Z,11.18
2023-11-21T21:39:15.034Z,11.40
2023-11-21T21:41:42.419Z,11.20
2023-11-21T21:44:09.898Z,11.35
2023-11-21T21:46:37.696Z,11.77
2023-11-21T21:49:05.441Z,11.07
2023-11-21T21:51:33.663Z,11.98
2023-11-21T21:54:01.032Z,12.20
2023-11-21T21:56:28.527Z,11.50
2023-11-21T21:58:58.091Z,11.98
2023-11-21T22:01:29.954Z,12.43
2023-11-21T22:03:57.485Z,11.18
2023-11-21T22:06:24.850Z,11.97
2023-11-21T22:08:52.200Z,11.65
2023-11-21T22:11:19.630Z,11.45
2023-11-21T22:13:47.037Z,12.30
2023-11-21T22:16:16.662Z,12.02
2023-11-21T22:18:44.356Z,11.60
2023-11-21T22:21:19.074Z,12.07
2023-11-21T22:23:46.395Z,12.57
2023-11-21T22:26:17.077Z,11.90
2023-11-21T22:28:44.444Z,13.25
2023-11-21T22:31:11.793Z,13.87
2023-11-21T22:33:39.714Z,13.35
2023-11-21T22:36:07.318Z,11.82
2023-11-21T22:38:34.742Z,12.63
2023-11-21T22:41:04.019Z,12.80
2023-11-21T22:43:32.301Z,11.97
2023-11-21T22:45:59.802Z,12.88
2023-11-21T22:48:28.308Z,11.77
2023-11-21T22:50:55.794Z,12.25
2023-11-21T22:53:23.217Z,14.80
2023-11-21T22:55:50.582Z,13.52
2023-11-21T22:58:18.010Z,14.23
2023-11-21T23:00:46.857Z,14.23
2023-11-21T23:03:14.506Z,14.65
2023-11-21T23:05:42.060Z,14.00
2023-11-21T23:08:10.400Z,13.87
2023-11-21T23:10:40.399Z,12.63
2023-11-21T23:13:09.477Z,12.65
2023-11-21T23:15:36.853Z,13.43
2023-11-21T23:18:06.300Z,14.73
2023-11-21T23:20:33.714Z,13.65
2023-11-21T23:23:01.038Z,13.35
2023-11-21T23:25:28.308Z,13.90
2023-11-21T23:27:55.696Z,14.85
2023-11-21T23:30:24.762Z,14.35
2023-11-21T23:32:52.167Z,14.77
2023-11-21T23:35:19.621Z,13.88
2023-11-21T23:37:46.998Z,14.35
2023-11-21T23:40:14.927Z,14.70
2023-11-21T23:42:42.262Z,13.43
2023-11-21T23:45:10.108Z,15.60
2023-11-21T23:47:37.499Z,14.25
2023-11-21T23:50:05.618Z,16.20
2023-11-21T23:52:33.027Z,13.80
2023-11-21T23:55:00.400Z,14.43
2023-11-21T23:57:27.776Z,14.10
2023-11-21T23:59:55.145Z,15.02
